Terminal Aerodrome Forecast
Issued by NWS

Home | Current Version | Previous Version | Text Only | Print | Product List | Glossary On
Versions: 1 2 3 4 5 6 7 8 9 10 11 12 13 14 15 16 17 18 19 20 21
000
FTUS43 KDTX 290607 RRA
TAFYIP
TAF
KYIP 290607Z 2906/3006 06008KT 6SM -SHRA SCT030 OVC060
      TEMPO 2906/2908 3SM SHRA OVC030
     FM290800 06008KT 6SM -SHRA BR OVC015
     FM291000 06008KT 3SM -SHRA BR OVC007
     FM291600 08013KT 6SM -SHRA OVC015
     FM292200 06008KT 3SM -SHRA BR OVC007=

USA.gov is the U.S. government's official web portal to all federal, state and local government web resources and services.